Time;durP1;ratioP1;P1;durP2;ratioP2;P2;SDS_P1;SDS_P2;PMS_P1;PMS_P2;Temp;Humidity;BMP_temperature;BMP_pressure;BME280_temperature;BME280_humidity;BME280_pressure;Samples;Min_cycle;Max_cycle;Signal;HPM_P1;HPM_P2
2023/06/14 00:00:42;;;;;;;9.18;5.30;;;18.00;59.30;;;;;;4975953;28;86548;-76
2023/06/14 00:03:11;;;;;;;10.02;5.70;;;17.90;59.20;;;;;;4975550;28;86758;-78
2023/06/14 00:05:43;;;;;;;12.77;6.30;;;17.90;60.40;;;;;;4975659;28;86813;-77
2023/06/14 00:08:10;;;;;;;9.10;5.93;;;17.80;59.20;;;;;;4976245;28;86418;-76
2023/06/14 00:10:41;;;;;;;12.68;6.22;;;17.70;59.50;;;;;;4975712;28;86600;-76
2023/06/14 00:13:09;;;;;;;6.70;5.50;;;17.70;59.90;;;;;;4976129;28;86726;-77
2023/06/14 00:15:35;;;;;;;8.02;5.15;;;17.60;60.90;;;;;;4975678;28;87885;-77
2023/06/14 00:18:02;;;;;;;9.85;5.93;;;17.60;61.20;;;;;;4975621;28;87648;-76
2023/06/14 00:20:28;;;;;;;7.30;5.72;;;17.50;62.10;;;;;;4976184;28;85834;-77
2023/06/14 00:22:57;;;;;;;12.48;6.22;;;17.50;63.60;;;;;;4976344;28;86325;-77
2023/06/14 00:25:25;;;;;;;6.85;5.63;;;17.40;62.30;;;;;;4975892;28;88039;-77
2023/06/14 00:27:52;;;;;;;8.35;6.28;;;17.30;63.10;;;;;;4975163;28;87087;-78
2023/06/14 00:30:17;;;;;;;10.07;5.60;;;17.30;63.30;;;;;;4975073;28;86249;-77
2023/06/14 00:32:44;;;;;;;11.35;6.65;;;17.20;63.60;;;;;;4975126;28;86229;-76
2023/06/14 00:35:10;;;;;;;8.20;5.97;;;17.10;64.70;;;;;;4975419;28;88284;-77
2023/06/14 00:37:36;;;;;;;9.85;6.13;;;17.10;64.60;;;;;;4975206;28;85989;-78
2023/06/14 00:40:04;;;;;;;7.82;5.68;;;17.10;64.40;;;;;;4975758;28;86387;-76
2023/06/14 00:42:29;;;;;;;12.90;6.10;;;17.00;65.20;;;;;;4990743;28;86605;-75
2023/06/14 00:44:55;;;;;;;7.22;5.90;;;17.00;66.00;;;;;;4975541;28;87943;-77
2023/06/14 00:47:21;;;;;;;10.45;6.43;;;16.90;66.10;;;;;;4975074;28;87261;-77
2023/06/14 00:49:48;;;;;;;8.95;6.20;;;16.80;67.20;;;;;;4975703;28;85768;-77
2023/06/14 00:52:15;;;;;;;11.93;6.82;;;16.80;67.00;;;;;;4975015;28;87522;-75
2023/06/14 00:54:41;;;;;;;9.15;6.25;;;16.70;67.00;;;;;;4975031;28;87124;-77
2023/06/14 00:57:07;;;;;;;8.02;6.22;;;16.70;67.90;;;;;;4975056;28;86542;-77
2023/06/14 00:59:37;;;;;;;8.68;6.78;;;16.60;67.50;;;;;;4975105;28;86300;-77
2023/06/14 01:02:03;;;;;;;11.07;7.13;;;16.50;68.40;;;;;;4975726;28;86397;-76
2023/06/14 01:04:28;;;;;;;7.65;6.22;;;16.50;68.40;;;;;;4975308;28;86944;-76
2023/06/14 01:07:13;;;;;;;9.25;6.30;;;16.40;68.20;;;;;;4966031;28;87293;-77
2023/06/14 01:10:07;;;;;;;9.23;6.38;;;16.40;67.90;;;;;;4975040;28;86318;-76
2023/06/14 01:12:57;;;;;;;11.63;7.17;;;16.30;69.40;;;;;;4975312;28;85924;-77
2023/06/14 01:15:23;;;;;;;8.48;6.40;;;16.20;69.50;;;;;;4974620;28;87445;-77
2023/06/14 01:17:51;;;;;;;8.57;6.97;;;16.20;69.00;;;;;;4975596;28;87092;-75
2023/06/14 01:20:20;;;;;;;11.50;6.78;;;16.10;70.50;;;;;;4975155;28;86043;-77
2023/06/14 01:22:51;;;;;;;10.02;7.05;;;16.10;70.00;;;;;;4975392;28;85961;-78
2023/06/14 01:25:20;;;;;;;11.85;7.25;;;16.00;70.20;;;;;;4974415;28;86970;-77
2023/06/14 01:27:48;;;;;;;9.75;6.85;;;15.90;71.20;;;;;;4974845;28;88619;-77
2023/06/14 01:30:14;;;;;;;7.45;6.63;;;15.90;70.90;;;;;;4975048;28;86266;-76
2023/06/14 01:32:40;;;;;;;8.32;6.60;;;15.90;70.40;;;;;;4975274;28;87891;-77
2023/06/14 01:35:06;;;;;;;13.65;7.30;;;15.80;72.00;;;;;;4974517;28;88812;-76
2023/06/14 01:37:32;;;;;;;7.63;6.85;;;15.70;71.50;;;;;;4974592;28;87562;-77
2023/06/14 01:39:59;;;;;;;8.43;6.90;;;15.70;72.50;;;;;;4975735;28;86170;-77
2023/06/14 01:42:25;;;;;;;9.90;7.60;;;15.60;71.50;;;;;;4975328;28;86397;-77
2023/06/14 01:44:52;;;;;;;11.13;7.63;;;15.60;73.20;;;;;;4974161;28;87169;-77
2023/06/14 01:47:18;;;;;;;10.57;7.60;;;15.50;74.00;;;;;;4975094;28;86348;-77
2023/06/14 01:49:45;;;;;;;10.50;7.45;;;15.50;73.70;;;;;;4974736;28;86419;-76
2023/06/14 01:52:11;;;;;;;8.70;7.40;;;15.40;74.30;;;;;;4975121;28;86682;-77
2023/06/14 01:54:41;;;;;;;12.10;7.47;;;15.30;73.80;;;;;;4974636;28;88379;-76
2023/06/14 01:57:07;;;;;;;9.20;7.30;;;15.30;73.50;;;;;;4974479;28;86997;-77
2023/06/14 01:59:34;;;;;;;11.05;8.15;;;15.30;72.70;;;;;;4974920;28;86218;-77
2023/06/14 02:02:02;;;;;;;14.57;7.82;;;15.30;72.80;;;;;;4974724;28;86556;-77
2023/06/14 02:04:28;;;;;;;10.00;7.30;;;15.30;72.40;;;;;;4974778;28;86907;-77
2023/06/14 02:06:53;;;;;;;9.40;7.35;;;15.30;73.30;;;;;;4975409;28;86479;-77
2023/06/14 02:09:19;;;;;;;10.75;7.40;;;15.20;73.80;;;;;;4976265;28;86685;-81
2023/06/14 02:11:45;;;;;;;10.48;7.63;;;15.20;74.30;;;;;;4978999;28;86110;-80
2023/06/14 02:14:11;;;;;;;16.73;9.10;;;15.10;73.40;;;;;;4977303;28;89583;-81
2023/06/14 02:16:38;;;;;;;11.18;7.32;;;15.10;73.80;;;;;;4977760;28;87083;-82
2023/06/14 02:19:05;;;;;;;9.63;7.60;;;15.10;74.00;;;;;;4977701;28;86293;-80
2023/06/14 02:21:30;;;;;;;10.02;7.85;;;15.00;74.80;;;;;;4978119;28;86595;-84
2023/06/14 02:23:56;;;;;;;10.10;7.55;;;15.00;75.10;;;;;;4978293;28;86594;-80
2023/06/14 02:26:25;;;;;;;12.63;8.45;;;15.00;75.00;;;;;;4977830;28;86164;-81
2023/06/14 02:28:51;;;;;;;8.70;7.55;;;15.00;74.60;;;;;;4976812;28;87500;-81
2023/06/14 02:31:16;;;;;;;13.63;7.72;;;14.90;73.80;;;;;;4976787;28;86235;-81
2023/06/14 02:33:42;;;;;;;11.00;7.88;;;14.90;74.00;;;;;;4977051;28;90701;-80
2023/06/14 02:36:07;;;;;;;12.25;7.80;;;14.90;74.90;;;;;;4978859;28;86268;-80
2023/06/14 02:38:33;;;;;;;10.68;7.55;;;14.90;73.80;;;;;;4978323;28;86388;-81
2023/06/14 02:41:01;;;;;;;8.27;7.35;;;14.90;73.60;;;;;;4978616;28;85921;-81
2023/06/14 02:43:29;;;;;;;11.15;7.78;;;14.90;73.10;;;;;;4978079;28;86323;-81
2023/06/14 02:45:55;;;;;;;11.25;7.88;;;14.80;73.60;;;;;;4977447;28;86393;-80
2023/06/14 02:48:20;;;;;;;20.27;9.07;;;14.80;74.70;;;;;;5008732;28;86357;-80
2023/06/14 02:50:46;;;;;;;10.13;7.55;;;14.80;73.60;;;;;;4973073;28;86576;-80
2023/06/14 02:53:12;;;;;;;12.52;7.70;;;14.80;74.30;;;;;;4977817;28;87194;-80
2023/06/14 02:55:39;;;;;;;9.73;7.45;;;14.80;73.90;;;;;;4976783;28;89377;-80
2023/06/14 02:58:05;;;;;;;11.90;9.20;;;14.70;73.80;;;;;;4980860;28;86313;-80
2023/06/14 03:00:31;;;;;;;11.32;8.20;;;14.70;73.50;;;;;;4981779;28;85890;-80
2023/06/14 03:02:57;;;;;;;11.32;8.02;;;14.70;74.50;;;;;;4981334;28;86356;-80
2023/06/14 03:05:23;;;;;;;12.60;8.50;;;14.70;74.50;;;;;;4981625;28;86889;-81
2023/06/14 03:07:50;;;;;;;13.52;8.55;;;14.70;74.90;;;;;;4980249;28;86202;-80
2023/06/14 03:10:16;;;;;;;11.25;8.10;;;14.60;73.40;;;;;;4981185;28;86544;-81
2023/06/14 03:12:42;;;;;;;11.23;8.73;;;14.70;73.80;;;;;;4979529;28;91505;-80
2023/06/14 03:15:08;;;;;;;14.35;9.10;;;14.60;73.30;;;;;;4980008;28;89985;-80
2023/06/14 03:17:35;;;;;;;13.70;8.63;;;14.60;73.80;;;;;;4979418;28;86419;-80
2023/06/14 03:20:01;;;;;;;12.07;7.55;;;14.60;72.90;;;;;;4981524;28;86635;-80
2023/06/14 03:22:28;;;;;;;10.27;7.72;;;14.60;73.20;;;;;;4981130;28;86887;-80
2023/06/14 03:24:54;;;;;;;14.15;8.68;;;14.60;74.00;;;;;;4979234;28;89588;-81
2023/06/14 03:27:19;;;;;;;12.40;8.82;;;14.50;73.80;;;;;;4981743;28;86221;-80
2023/06/14 03:29:45;;;;;;;12.30;8.82;;;14.60;74.20;;;;;;4981592;28;86919;-80
2023/06/14 03:32:12;;;;;;;13.05;8.27;;;14.60;74.90;;;;;;4981577;28;87645;-80
2023/06/14 03:34:41;;;;;;;10.45;8.40;;;14.50;73.80;;;;;;4981490;28;87346;-80
2023/06/14 03:37:06;;;;;;;11.88;8.75;;;14.50;74.00;;;;;;4982129;28;86219;-81
2023/06/14 03:39:32;;;;;;;11.80;8.15;;;14.50;74.30;;;;;;4982246;28;86262;-80
2023/06/14 03:41:58;;;;;;;12.02;8.73;;;14.50;74.60;;;;;;4982287;28;87408;-80
2023/06/14 03:44:26;;;;;;;12.55;8.73;;;14.50;75.50;;;;;;4983624;28;86647;-80
2023/06/14 03:46:52;;;;;;;16.23;9.55;;;14.40;74.70;;;;;;4973522;28;86232;-80
2023/06/14 03:49:18;;;;;;;11.43;8.77;;;14.40;75.50;;;;;;4976728;28;86259;-80
2023/06/14 03:51:44;;;;;;;10.10;8.77;;;14.40;75.20;;;;;;4981299;28;90711;-80
2023/06/14 03:54:10;;;;;;;12.38;8.88;;;14.40;76.70;;;;;;4977389;28;90068;-80
2023/06/14 03:56:36;;;;;;;19.98;10.07;;;14.40;77.00;;;;;;4982965;28;86523;-80
2023/06/14 03:59:02;;;;;;;14.25;9.55;;;14.40;77.70;;;;;;4983304;28;86321;-80
2023/06/14 04:01:29;;;;;;;12.32;9.05;;;14.40;75.80;;;;;;4984187;28;87419;-80
2023/06/14 04:03:57;;;;;;;12.73;8.15;;;14.40;75.50;;;;;;4983740;28;87033;-80
2023/06/14 04:06:24;;;;;;;12.07;9.00;;;14.40;76.50;;;;;;4983109;28;86627;-80
2023/06/14 04:08:51;;;;;;;14.65;9.05;;;14.40;76.10;;;;;;4981309;28;86105;-80
2023/06/14 04:11:17;;;;;;;13.85;9.13;;;14.50;76.70;;;;;;4983559;28;87377;-80
2023/06/14 04:13:43;;;;;;;11.15;8.02;;;14.50;78.80;;;;;;4982712;28;86620;-80
2023/06/14 04:16:08;;;;;;;14.55;8.23;;;14.50;76.40;;;;;;4984187;28;86171;-80
2023/06/14 04:18:34;;;;;;;12.63;8.57;;;14.50;76.90;;;;;;4982463;28;86426;-80
2023/06/14 04:21:00;;;;;;;15.25;8.65;;;14.60;76.30;;;;;;4984446;28;87019;-80
2023/06/14 04:23:28;;;;;;;15.20;9.73;;;14.60;76.40;;;;;;4983019;28;86347;-80
2023/06/14 04:25:53;;;;;;;11.32;8.63;;;14.70;76.40;;;;;;4980275;28;87234;-81
2023/06/14 04:28:19;;;;;;;11.52;9.02;;;14.70;76.60;;;;;;4978955;28;86194;-81
2023/06/14 04:30:47;;;;;;;15.90;8.50;;;14.80;76.30;;;;;;4979772;28;87378;-80
2023/06/14 04:33:13;;;;;;;11.23;8.65;;;14.80;75.60;;;;;;4979921;28;86441;-81
2023/06/14 04:35:40;;;;;;;13.88;9.25;;;14.80;76.30;;;;;;4974219;28;86115;-81
2023/06/14 04:38:09;;;;;;;16.77;9.45;;;14.90;77.70;;;;;;4979987;28;86560;-80
2023/06/14 04:40:36;;;;;;;15.40;9.85;;;15.00;75.60;;;;;;4978212;28;90604;-81
2023/06/14 04:43:06;;;;;;;15.48;9.70;;;15.00;75.00;;;;;;4971897;28;90192;-82
2023/06/14 04:45:32;;;;;;;13.68;9.85;;;15.10;74.10;;;;;;4978075;28;86349;-82
2023/06/14 04:47:59;;;;;;;13.88;9.85;;;15.20;73.80;;;;;;4994510;28;86418;-81
2023/06/14 04:50:25;;;;;;;25.02;10.02;;;15.20;74.10;;;;;;4979284;28;87663;-80
2023/06/14 04:52:51;;;;;;;19.70;10.65;;;15.30;73.10;;;;;;4978759;28;86533;-81
2023/06/14 04:55:18;;;;;;;12.57;9.45;;;15.40;73.50;;;;;;4978420;28;86201;-81
2023/06/14 04:57:44;;;;;;;14.18;10.60;;;15.50;74.90;;;;;;4978661;28;86506;-81
2023/06/14 05:00:11;;;;;;;14.05;9.70;;;15.50;74.90;;;;;;4977895;28;87506;-80
2023/06/14 05:02:37;;;;;;;16.85;10.10;;;15.70;73.60;;;;;;4977287;28;90107;-81
2023/06/14 05:05:07;;;;;;;16.02;9.98;;;15.80;73.50;;;;;;4970169;28;86306;-82
2023/06/14 05:07:33;;;;;;;16.13;9.95;;;15.90;73.00;;;;;;4978355;28;85813;-82
2023/06/14 05:09:59;;;;;;;15.65;10.20;;;15.90;73.40;;;;;;4977781;28;90321;-81
2023/06/14 05:12:25;;;;;;;26.45;10.95;;;16.10;73.90;;;;;;4978353;28;87267;-81
2023/06/14 05:14:50;;;;;;;16.77;10.45;;;16.10;74.40;;;;;;4977237;28;86347;-81
2023/06/14 05:17:17;;;;;;;13.43;10.20;;;16.20;73.90;;;;;;4976911;28;86299;-83
2023/06/14 05:19:42;;;;;;;16.55;11.02;;;16.30;73.80;;;;;;4977943;28;88115;-82
2023/06/14 05:22:08;;;;;;;16.80;11.23;;;16.40;73.50;;;;;;4978375;28;86985;-82
2023/06/14 05:24:34;;;;;;;22.70;11.52;;;16.50;74.40;;;;;;4975537;28;87042;-80
2023/06/14 05:27:00;;;;;;;19.73;11.10;;;16.60;73.20;;;;;;4978713;28;86102;-81
2023/06/14 05:29:27;;;;;;;18.02;10.70;;;16.70;72.60;;;;;;4968735;28;88908;-83
2023/06/14 05:31:53;;;;;;;14.90;10.82;;;16.80;73.30;;;;;;4973887;28;89836;-82
2023/06/14 05:34:18;;;;;;;17.20;10.90;;;16.90;72.60;;;;;;4978022;28;86217;-83
2023/06/14 05:36:44;;;;;;;16.77;11.40;;;17.00;72.40;;;;;;4976642;28;86962;-82
2023/06/14 05:39:10;;;;;;;20.90;11.20;;;17.10;72.30;;;;;;4970327;28;89971;-81
2023/06/14 05:41:36;;;;;;;14.82;11.40;;;17.20;72.00;;;;;;4973538;28;88529;-82
2023/06/14 05:44:01;;;;;;;18.55;10.93;;;17.30;72.70;;;;;;4976692;28;86094;-82
2023/06/14 05:46:28;;;;;;;17.60;11.60;;;17.50;72.30;;;;;;4969780;28;86470;-81
2023/06/14 05:48:54;;;;;;;16.52;11.20;;;17.60;72.30;;;;;;4976589;28;90428;-82
2023/06/14 05:51:21;;;;;;;15.73;11.32;;;17.70;72.40;;;;;;4977726;28;87022;-83
2023/06/14 05:53:47;;;;;;;19.98;10.80;;;17.80;70.90;;;;;;4976668;28;86436;-82
2023/06/14 05:56:13;;;;;;;22.10;10.98;;;17.90;71.90;;;;;;4976589;28;86824;-82
2023/06/14 05:58:39;;;;;;;15.77;10.27;;;18.10;71.00;;;;;;4977167;28;87793;-82
2023/06/14 06:01:05;;;;;;;18.92;10.98;;;18.20;71.00;;;;;;4977866;28;86167;-83
2023/06/14 06:03:30;;;;;;;22.55;10.52;;;18.30;70.80;;;;;;4978330;28;86023;-82
2023/06/14 06:05:56;;;;;;;17.45;10.48;;;18.40;69.70;;;;;;4977547;28;86002;-81
2023/06/14 06:08:22;;;;;;;16.27;9.60;;;18.60;69.90;;;;;;4977754;28;88423;-81
2023/06/14 06:10:47;;;;;;;15.60;8.80;;;18.70;68.20;;;;;;4978525;28;86266;-81
2023/06/14 06:13:13;;;;;;;17.40;8.52;;;18.80;67.00;;;;;;4977708;28;86629;-82
2023/06/14 06:15:38;;;;;;;18.13;9.43;;;19.00;68.00;;;;;;4976715;28;86115;-82
2023/06/14 06:18:04;;;;;;;14.88;8.40;;;19.10;68.80;;;;;;4978114;28;87274;-82
2023/06/14 06:20:31;;;;;;;17.90;8.15;;;19.20;67.90;;;;;;4977827;28;86164;-82
2023/06/14 06:23:00;;;;;;;18.65;7.82;;;19.40;66.60;;;;;;4977030;28;86501;-81
2023/06/14 06:25:26;;;;;;;15.32;8.07;;;19.50;66.40;;;;;;4977400;28;85999;-81
2023/06/14 06:27:58;;;;;;;14.93;7.47;;;19.70;66.80;;;;;;4978573;28;87355;-80
2023/06/14 06:30:24;;;;;;;14.95;8.00;;;19.80;66.30;;;;;;5009068;28;88419;-81
2023/06/14 06:32:50;;;;;;;15.07;7.35;;;20.00;64.50;;;;;;4980126;28;88010;-82
2023/06/14 06:35:17;;;;;;;14.80;7.35;;;20.20;64.20;;;;;;4976439;28;86471;-80
2023/06/14 06:37:43;;;;;;;12.93;7.20;;;20.30;63.40;;;;;;4970822;28;88396;-82
2023/06/14 06:40:09;;;;;;;15.88;7.10;;;20.50;63.70;;;;;;4979899;28;89100;-80
2023/06/14 06:42:35;;;;;;;11.05;7.07;;;20.60;63.30;;;;;;4979580;28;86161;-80
2023/06/14 06:45:01;;;;;;;13.02;6.72;;;20.80;62.60;;;;;;4981332;28;86049;-81
2023/06/14 06:47:27;;;;;;;9.85;6.50;;;20.90;63.10;;;;;;4981346;28;87353;-79
2023/06/14 06:49:53;;;;;;;10.95;7.05;;;21.00;61.10;;;;;;4979084;28;88358;-80
2023/06/14 06:52:18;;;;;;;12.30;6.97;;;21.20;61.40;;;;;;4980043;28;86109;-79
2023/06/14 06:54:44;;;;;;;13.73;6.18;;;21.30;59.40;;;;;;4978591;28;86083;-79
2023/06/14 06:57:10;;;;;;;10.07;6.60;;;21.50;59.70;;;;;;4975567;28;89255;-79
2023/06/14 06:59:36;;;;;;;8.75;5.88;;;21.60;59.20;;;;;;4979932;28;87213;-78
2023/06/14 07:02:02;;;;;;;15.02;6.82;;;21.70;59.80;;;;;;4980346;28;86694;-79
2023/06/14 07:04:28;;;;;;;12.95;5.97;;;21.90;59.70;;;;;;4980486;28;86610;-79
2023/06/14 07:06:53;;;;;;;15.55;6.57;;;22.10;59.40;;;;;;4971235;28;90173;-79
2023/06/14 07:09:19;;;;;;;14.98;7.07;;;22.20;58.00;;;;;;4979714;28;87037;-79
2023/06/14 07:11:45;;;;;;;12.20;6.88;;;22.30;58.20;;;;;;4980347;28;86338;-79
2023/06/14 07:14:11;;;;;;;12.10;6.13;;;22.40;55.50;;;;;;4980662;28;85997;-80
2023/06/14 07:16:38;;;;;;;9.77;6.05;;;22.50;56.30;;;;;;4979434;28;87475;-79
2023/06/14 07:19:04;;;;;;;13.02;6.25;;;22.70;55.90;;;;;;4979532;28;86959;-79
2023/06/14 07:21:30;;;;;;;12.10;6.45;;;22.90;54.00;;;;;;4971077;28;86670;-79
2023/06/14 07:23:56;;;;;;;10.40;6.22;;;23.00;54.70;;;;;;4980220;28;86486;-80
2023/06/14 07:26:22;;;;;;;13.60;6.93;;;23.10;54.10;;;;;;4972503;28;90026;-79
2023/06/14 07:28:48;;;;;;;14.60;6.30;;;23.20;54.50;;;;;;4979879;28;86448;-79
2023/06/14 07:31:15;;;;;;;16.38;6.35;;;23.40;54.80;;;;;;4979944;28;87142;-79
2023/06/14 07:33:41;;;;;;;12.18;6.55;;;23.60;54.60;;;;;;4978639;28;86206;-79
2023/06/14 07:36:08;;;;;;;11.65;5.72;;;23.80;51.20;;;;;;5008133;28;89132;-79
2023/06/14 07:38:33;;;;;;;10.27;6.55;;;23.90;52.60;;;;;;4975433;28;88347;-78
2023/06/14 07:41:00;;;;;;;9.98;6.63;;;24.10;52.70;;;;;;4976172;28;86947;-78
2023/06/14 07:43:25;;;;;;;17.63;6.32;;;24.20;51.50;;;;;;4973839;28;86541;-79
2023/06/14 07:45:51;;;;;;;8.13;5.35;;;24.30;51.10;;;;;;4974772;28;87451;-78
2023/06/14 07:48:17;;;;;;;9.30;5.22;;;24.50;50.10;;;;;;4975731;28;88783;-78
2023/06/14 07:50:42;;;;;;;13.60;6.20;;;24.60;51.70;;;;;;4976724;28;86365;-79
2023/06/14 07:53:08;;;;;;;10.57;5.60;;;24.80;50.20;;;;;;4977652;28;86419;-83
2023/06/14 07:55:36;;;;;;;14.10;5.22;;;24.90;49.60;;;;;;4977522;28;90435;-79
2023/06/14 07:58:08;;;;;;;12.93;6.07;;;25.00;48.10;;;;;;4979153;28;87214;-79
2023/06/14 08:00:34;;;;;;;16.48;5.40;;;25.00;49.40;;;;;;4979974;28;85990;-79
2023/06/14 08:03:00;;;;;;;10.27;4.97;;;25.20;49.50;;;;;;4978285;28;85794;-79
2023/06/14 08:05:26;;;;;;;11.75;5.75;;;25.40;50.10;;;;;;4979521;28;87486;-79
2023/06/14 08:07:51;;;;;;;5.97;5.15;;;25.50;48.60;;;;;;4978950;28;86618;-79
2023/06/14 08:10:17;;;;;;;6.18;4.88;;;25.50;47.20;;;;;;4976597;28;86287;-79
2023/06/14 08:12:43;;;;;;;7.18;4.70;;;25.70;47.90;;;;;;4978115;28;86826;-79
2023/06/14 08:15:09;;;;;;;10.13;4.75;;;25.90;48.60;;;;;;4978260;28;87423;-79
2023/06/14 08:17:35;;;;;;;6.72;4.78;;;26.00;47.10;;;;;;4979189;28;86864;-79
2023/06/14 08:20:01;;;;;;;7.50;4.78;;;26.10;48.70;;;;;;4978810;28;86383;-79
2023/06/14 08:22:28;;;;;;;9.85;4.60;;;26.20;48.00;;;;;;4979642;28;86152;-80
2023/06/14 08:24:54;;;;;;;12.43;6.28;;;26.30;47.30;;;;;;4978108;28;90599;-80
2023/06/14 08:27:20;;;;;;;9.55;5.78;;;26.50;46.10;;;;;;4979514;28;86323;-79
2023/06/14 08:29:46;;;;;;;12.73;6.57;;;26.50;46.30;;;;;;4978807;28;86314;-80
2023/06/14 08:32:12;;;;;;;11.48;5.50;;;26.70;46.20;;;;;;4979439;28;86736;-79
2023/06/14 08:34:38;;;;;;;13.35;5.05;;;26.80;45.20;;;;;;4978816;28;87013;-80
2023/06/14 08:37:05;;;;;;;13.27;4.85;;;26.90;45.60;;;;;;4979317;28;86880;-80
2023/06/14 08:39:31;;;;;;;8.65;4.22;;;27.10;45.40;;;;;;4956803;28;86346;-79
2023/06/14 08:41:58;;;;;;;6.65;4.60;;;27.20;45.30;;;;;;4968639;27;86722;-79
2023/06/14 08:44:24;;;;;;;11.02;4.75;;;27.30;44.40;;;;;;4974525;28;89895;-79
2023/06/14 08:46:53;;;;;;;7.28;3.80;;;27.50;45.10;;;;;;4978795;28;87253;-80
2023/06/14 08:49:19;;;;;;;7.32;4.05;;;27.70;44.80;;;;;;4972688;28;86507;-80
2023/06/14 08:51:47;;;;;;;9.25;4.82;;;27.70;44.60;;;;;;4978380;28;86574;-80
2023/06/14 08:54:14;;;;;;;9.48;3.92;;;27.80;43.50;;;;;;4972017;28;87093;-80
2023/06/14 08:56:41;;;;;;;8.90;3.95;;;27.70;43.70;;;;;;4977063;28;87471;-80
2023/06/14 08:59:09;;;;;;;9.60;4.20;;;27.80;43.80;;;;;;4977955;28;86195;-82
2023/06/14 09:01:36;;;;;;;5.90;3.67;;;27.90;42.40;;;;;;4977791;28;86420;-80
2023/06/14 09:04:05;;;;;;;6.85;3.95;;;28.10;43.00;;;;;;4978844;28;88065;-81
2023/06/14 09:06:31;;;;;;;13.07;4.10;;;28.30;42.20;;;;;;4975444;28;90171;-80
2023/06/14 09:08:57;;;;;;;12.55;3.53;;;28.30;42.30;;;;;;4975439;28;86405;-82
2023/06/14 09:11:23;;;;;;;8.70;3.58;;;28.30;42.20;;;;;;4991954;28;86412;-79
2023/06/14 09:13:49;;;;;;;10.70;3.75;;;28.40;41.90;;;;;;4978490;28;86204;-79
2023/06/14 09:16:16;;;;;;;6.07;3.45;;;28.50;41.70;;;;;;4978266;28;86177;-79
2023/06/14 09:18:44;;;;;;;9.65;3.50;;;28.60;42.30;;;;;;4978044;28;86599;-80
2023/06/14 09:21:11;;;;;;;10.65;4.00;;;28.70;40.90;;;;;;4976104;28;86222;-79
2023/06/14 09:23:38;;;;;;;6.90;3.80;;;28.80;39.70;;;;;;4976191;28;88910;-79
2023/06/14 09:26:15;;;;;;;14.85;3.58;;;28.90;40.70;;;;;;4976560;28;87046;-79
2023/06/14 09:28:42;;;;;;;8.30;3.75;;;28.90;41.20;;;;;;4977183;28;86518;-79
2023/06/14 09:31:09;;;;;;;6.90;3.70;;;29.00;40.30;;;;;;4976543;28;86206;-79
2023/06/14 09:33:35;;;;;;;8.00;4.15;;;29.00;39.70;;;;;;4977599;28;87453;-79
2023/06/14 09:36:01;;;;;;;13.70;4.05;;;29.10;39.60;;;;;;4977549;28;86896;-78
2023/06/14 09:38:27;;;;;;;5.30;3.38;;;29.20;40.00;;;;;;4977967;28;86562;-79
2023/06/14 09:40:52;;;;;;;6.55;3.50;;;29.50;39.00;;;;;;4978007;28;86562;-80
2023/06/14 09:43:19;;;;;;;6.38;2.95;;;29.80;40.40;;;;;;4971626;28;89009;-82
2023/06/14 09:45:48;;;;;;;9.48;3.20;;;29.90;39.00;;;;;;4978496;28;86598;-82
2023/06/14 09:48:17;;;;;;;6.45;3.30;;;30.10;38.10;;;;;;4978525;28;86231;-81
2023/06/14 09:50:46;;;;;;;14.85;3.53;;;30.20;38.00;;;;;;4977816;28;86366;-81
2023/06/14 09:53:13;;;;;;;5.95;2.88;;;30.10;39.10;;;;;;4978281;28;86667;-81
2023/06/14 09:55:40;;;;;;;8.18;2.97;;;30.30;37.40;;;;;;4977126;28;90383;-81
2023/06/14 09:58:07;;;;;;;10.80;2.78;;;30.50;37.70;;;;;;4978576;28;86298;-81
2023/06/14 10:00:34;;;;;;;5.70;2.72;;;30.60;37.20;;;;;;4978440;28;86257;-81
2023/06/14 10:03:22;;;;;;;5.22;2.40;;;30.60;37.70;;;;;;4976046;28;88162;-81
2023/06/14 10:05:50;;;;;;;7.13;2.60;;;30.80;37.70;;;;;;4974633;28;87830;-81
2023/06/14 10:08:26;;;;;;;8.30;3.10;;;31.00;36.40;;;;;;4993602;28;86607;-81
2023/06/14 10:10:52;;;;;;;6.05;2.55;;;31.10;37.00;;;;;;4977703;28;86370;-81
2023/06/14 10:13:18;;;;;;;5.95;2.30;;;31.30;36.40;;;;;;4976819;28;90839;-81
2023/06/14 10:16:06;;;;;;;6.15;2.33;;;31.30;34.50;;;;;;4976884;28;90161;-81
2023/06/14 10:19:06;;;;;;;5.25;2.20;;;31.00;35.80;;;;;;4976522;28;86468;-82
2023/06/14 10:21:36;;;;;;;6.25;2.20;;;31.00;34.70;;;;;;4976967;28;86182;-81
2023/06/14 10:24:06;;;;;;;4.82;2.15;;;31.10;36.20;;;;;;4971062;28;89149;-84
2023/06/14 10:26:32;;;;;;;3.47;2.25;;;31.30;36.70;;;;;;4978528;28;86401;-85
2023/06/14 10:29:07;;;;;;;5.50;2.30;;;31.50;36.20;;;;;;4977375;28;86626;-84
2023/06/14 10:31:43;;;;;;;4.72;2.13;;;31.80;35.00;;;;;;4978456;28;86075;-85
2023/06/14 10:34:12;;;;;;;3.38;1.80;;;31.90;35.00;;;;;;4977506;28;89074;-85
2023/06/14 10:36:41;;;;;;;4.90;2.22;;;32.00;37.00;;;;;;4968753;28;89506;-83
2023/06/14 10:39:11;;;;;;;4.63;2.30;;;32.20;35.10;;;;;;5009595;28;87525;-83
2023/06/14 10:41:40;;;;;;;5.00;2.47;;;32.20;34.10;;;;;;4978333;28;86661;-83
2023/06/14 10:44:14;;;;;;;5.90;2.35;;;32.20;35.30;;;;;;4976461;28;90421;-83
2023/06/14 10:46:46;;;;;;;8.43;1.90;;;32.30;34.70;;;;;;4976511;28;90067;-80
2023/06/14 10:49:11;;;;;;;4.47;2.33;;;32.50;35.60;;;;;;4978319;28;86291;-81
2023/06/14 10:51:47;;;;;;;6.05;2.20;;;32.70;36.30;;;;;;4978688;28;86291;-81
2023/06/14 10:54:13;;;;;;;4.93;2.00;;;33.10;34.10;;;;;;4992568;28;90086;-80
2023/06/14 10:56:49;;;;;;;5.57;2.03;;;33.20;34.60;;;;;;4974514;28;88125;-82
2023/06/14 10:59:16;;;;;;;4.03;1.65;;;33.40;34.50;;;;;;4977540;28;86168;-83
2023/06/14 11:02:03;;;;;;;10.13;2.30;;;33.60;34.40;;;;;;4977647;28;86382;-81
2023/06/14 11:04:47;;;;;;;6.53;2.03;;;33.80;31.30;;;;;;4971814;28;90659;-81
2023/06/14 11:07:39;;;;;;;4.10;2.47;;;33.70;33.10;;;;;;4974362;28;90087;-81
2023/06/14 11:10:20;;;;;;;3.65;2.22;;;33.60;33.40;;;;;;4970678;28;86854;-79
2023/06/14 11:12:49;;;;;;;3.22;2.17;;;33.60;34.10;;;;;;4974126;28;86990;-79
2023/06/14 11:15:14;;;;;;;2.85;1.92;;;33.70;33.50;;;;;;4976711;28;87299;-78
2023/06/14 11:17:57;;;;;;;5.28;2.03;;;33.70;33.20;;;;;;4979016;28;86890;-80
2023/06/14 11:20:25;;;;;;;6.55;2.15;;;33.90;33.10;;;;;;4980047;28;86438;-79
2023/06/14 11:22:52;;;;;;;5.57;2.40;;;34.20;32.60;;;;;;4979641;28;86323;-79
2023/06/14 11:25:17;;;;;;;2.40;1.90;;;34.40;33.30;;;;;;4979306;28;87159;-79
2023/06/14 11:27:44;;;;;;;3.58;1.73;;;34.30;32.20;;;;;;4979750;28;86549;-79
2023/06/14 11:30:11;;;;;;;3.88;1.65;;;34.50;32.80;;;;;;4978812;28;86538;-79
2023/06/14 11:32:37;;;;;;;5.90;1.90;;;34.50;32.70;;;;;;4978588;28;86322;-79
2023/06/14 11:35:04;;;;;;;6.32;2.33;;;34.40;31.70;;;;;;4979055;28;87878;-78
2023/06/14 11:37:31;;;;;;;8.05;1.63;;;34.40;32.50;;;;;;4977236;28;88759;-78
2023/06/14 11:39:57;;;;;;;2.97;1.80;;;34.50;32.90;;;;;;4979540;28;86366;-79
2023/06/14 11:42:24;;;;;;;4.35;1.90;;;34.70;32.30;;;;;;4978064;28;86106;-79
2023/06/14 11:44:50;;;;;;;4.00;1.70;;;35.00;32.50;;;;;;4978562;28;86604;-78
2023/06/14 11:47:16;;;;;;;3.75;1.80;;;35.20;32.00;;;;;;4978702;28;86505;-79
2023/06/14 11:49:41;;;;;;;3.30;1.38;;;35.30;32.50;;;;;;4979041;28;86558;-79
2023/06/14 11:52:07;;;;;;;2.80;1.10;;;35.30;29.80;;;;;;4977913;28;86487;-78
2023/06/14 11:54:33;;;;;;;2.00;1.00;;;35.40;30.70;;;;;;4977654;28;87390;-78
2023/06/14 11:56:59;;;;;;;1.35;1.17;;;35.10;29.60;;;;;;4978931;28;86664;-78
2023/06/14 11:59:25;;;;;;;2.20;1.10;;;34.80;29.30;;;;;;4979019;28;86690;-76
2023/06/14 12:01:54;;;;;;;1.60;1.20;;;35.00;29.40;;;;;;4979776;28;86136;-76
2023/06/14 12:04:29;;;;;;;6.53;1.20;;;35.10;29.20;;;;;;4979004;28;87775;-77
2023/06/14 12:06:57;;;;;;;2.35;1.10;;;35.10;30.00;;;;;;4976081;28;89951;-77
2023/06/14 12:09:25;;;;;;;1.33;0.90;;;35.10;30.20;;;;;;4978950;28;86574;-77
2023/06/14 12:11:59;;;;;;;3.88;1.20;;;35.30;30.10;;;;;;4978694;28;86244;-77
2023/06/14 12:14:31;;;;;;;2.53;0.82;;;35.60;30.10;;;;;;4979134;28;87420;-77
2023/06/14 12:17:06;;;;;;;2.57;0.80;;;36.10;30.50;;;;;;4977591;28;86190;-77
2023/06/14 12:19:31;;;;;;;1.50;0.95;;;36.60;30.30;;;;;;4976503;28;86607;-77
2023/06/14 12:22:01;;;;;;;3.35;1.10;;;36.70;29.50;;;;;;4974483;28;85835;-77
2023/06/14 12:24:30;;;;;;;2.53;1.10;;;36.60;28.20;;;;;;4978308;28;87259;-78
2023/06/14 12:26:59;;;;;;;8.18;1.00;;;36.70;29.10;;;;;;4977670;28;86953;-77
2023/06/14 12:29:25;;;;;;;1.98;1.10;;;36.70;29.30;;;;;;4972526;28;86326;-78
2023/06/14 12:31:53;;;;;;;4.57;1.13;;;36.60;29.20;;;;;;4977855;28;86521;-78
2023/06/14 12:34:19;;;;;;;2.30;1.15;;;36.70;29.30;;;;;;4977243;28;87395;-78
2023/06/14 12:36:46;;;;;;;2.38;0.90;;;36.60;27.70;;;;;;4975393;28;88799;-79
2023/06/14 12:39:12;;;;;;;2.47;1.10;;;36.30;27.60;;;;;;4977627;28;86238;-79
2023/06/14 12:41:38;;;;;;;1.50;0.80;;;35.90;29.60;;;;;;4977644;28;86200;-79